Time;durP1;ratioP1;P1;durP2;ratioP2;P2;SDS_P1;SDS_P2;PMS_P1;PMS_P2;Temp;Humidity;BMP_temperature;BMP_pressure;BME280_temperature;BME280_humidity;BME280_pressure;Samples;Min_cycle;Max_cycle;Signal;HPM_P1;HPM_P2
2022/03/12 00:01:31;;;;;;;18.90;7.78;;;;;;;9.90;25.04;101045.41;5092099;28;20032;-65
2022/03/12 00:03:59;;;;;;;22.52;8.40;;;;;;;9.79;25.28;101048.19;5091937;28;20044;-65
2022/03/12 00:06:27;;;;;;;17.20;7.53;;;;;;;9.81;25.63;101040.94;5092130;28;20127;-65
2022/03/12 00:08:54;;;;;;;21.00;8.10;;;;;;;9.80;25.74;101044.56;5091894;28;20072;-65
2022/03/12 00:11:25;;;;;;;18.77;7.75;;;;;;;9.79;25.90;101042.91;5075339;28;20133;-65
2022/03/12 00:13:53;;;;;;;20.13;8.60;;;;;;;9.81;26.08;101054.19;5093111;28;20040;-65
2022/03/12 00:16:23;;;;;;;15.63;7.47;;;;;;;9.79;26.07;101050.84;5058333;28;20105;-65
2022/03/12 00:18:55;;;;;;;16.42;8.32;;;;;;;9.79;25.77;101045.56;5093039;28;20044;-65
2022/03/12 00:21:35;;;;;;;19.73;8.98;;;;;;;9.77;25.73;101044.88;5090085;28;20036;-65
2022/03/12 00:24:03;;;;;;;16.92;8.63;;;;;;;9.76;26.07;101036.06;5092086;28;20040;-65
2022/03/12 00:26:33;;;;;;;19.33;8.38;;;;;;;9.79;25.29;101045.56;5091872;28;20500;-65
2022/03/12 00:29:00;;;;;;;20.55;8.45;;;;;;;9.78;25.65;101047.34;5091739;28;20492;-65
2022/03/12 00:31:27;;;;;;;30.75;8.95;;;;;;;9.75;26.41;101049.44;5074998;28;20044;-65
2022/03/12 00:33:55;;;;;;;18.67;8.77;;;;;;;9.55;26.19;101040.66;5093105;28;20040;-65
2022/03/12 00:36:22;;;;;;;20.10;8.68;;;;;;;9.65;26.43;101051.28;5091695;28;20446;-65
2022/03/12 00:38:49;;;;;;;25.45;8.50;;;;;;;9.78;26.05;101055.28;5092697;28;20044;-65
2022/03/12 00:41:16;;;;;;;19.17;9.00;;;;;;;9.73;26.68;101048.75;5059569;28;20127;-65
2022/03/12 00:43:44;;;;;;;17.45;8.13;;;;;;;9.56;25.96;101055.59;5092838;28;20471;-65
2022/03/12 00:46:11;;;;;;;20.05;8.52;;;;;;;9.60;26.16;101056.97;5091532;28;20093;-65
2022/03/12 00:48:39;;;;;;;23.73;8.27;;;;;;;9.68;26.37;101054.50;5091551;28;20040;-65
2022/03/12 00:51:07;;;;;;;20.42;9.43;;;;;;;9.51;26.39;101056.00;5092768;28;20052;-65
2022/03/12 00:53:34;;;;;;;18.83;8.75;;;;;;;9.55;26.44;101067.16;5091691;28;20093;-65
2022/03/12 00:56:02;;;;;;;17.25;8.75;;;;;;;9.42;26.29;101059.50;5092691;28;20526;-65
2022/03/12 00:58:29;;;;;;;18.83;8.52;;;;;;;9.36;26.82;101055.59;5093112;28;20489;-65
2022/03/12 01:00:56;;;;;;;20.23;8.52;;;;;;;9.57;26.53;101057.28;5092526;28;20039;-65
2022/03/12 01:03:23;;;;;;;17.48;7.88;;;;;;;9.51;26.51;101057.81;5074613;28;20321;-65
2022/03/12 01:08:29;;;;;;;21.77;8.38;;;;;;;9.38;26.75;101069.53;5101411;28;20456;-64
2022/03/12 01:10:58;;;;;;;25.08;8.35;;;;;;;9.49;27.25;101065.06;5092744;28;20051;-64
2022/03/12 01:13:27;;;;;;;24.30;9.18;;;;;;;9.33;26.89;101070.91;5092768;28;20438;-64
2022/03/12 01:15:54;;;;;;;18.08;8.55;;;;;;;9.37;26.97;101061.75;5076001;28;20074;-65
2022/03/12 01:18:22;;;;;;;18.10;8.23;;;;;;;9.39;27.46;101068.56;5092565;28;20109;-64
2022/03/12 01:20:50;;;;;;;16.77;8.30;;;;;;;9.31;27.43;101063.09;5110590;28;20134;-65
2022/03/12 01:23:20;;;;;;;29.85;9.10;;;;;;;9.45;26.99;101066.34;5110637;28;20089;-65
2022/03/12 01:25:47;;;;;;;30.73;9.45;;;;;;;9.51;27.25;101074.53;5092589;28;20048;-64
2022/03/12 01:28:16;;;;;;;18.30;9.75;;;;;;;9.30;27.08;101068.56;5110426;28;20040;-64
2022/03/12 01:30:43;;;;;;;18.48;8.40;;;;;;;9.18;27.49;101071.31;5092510;28;20401;-64
2022/03/12 01:33:11;;;;;;;21.75;9.05;;;;;;;9.12;27.29;101068.38;5075619;28;20048;-64
2022/03/12 01:35:38;;;;;;;17.83;8.43;;;;;;;9.22;27.54;101072.72;5110554;28;20040;-64
2022/03/12 01:38:07;;;;;;;18.02;8.45;;;;;;;9.34;27.53;101068.13;5092173;28;20123;-64
2022/03/12 01:40:34;;;;;;;19.05;8.80;;;;;;;9.23;27.51;101070.91;5107980;28;20519;-64
2022/03/12 01:43:02;;;;;;;18.67;8.75;;;;;;;9.23;27.89;101068.25;5071924;28;20273;-65
2022/03/12 01:45:29;;;;;;;17.55;8.80;;;;;;;9.13;27.49;101072.69;5072115;28;20454;-64
2022/03/12 01:47:59;;;;;;;18.73;8.38;;;;;;;9.10;27.87;101073.81;5089701;28;20037;-64
2022/03/12 01:50:29;;;;;;;18.10;8.68;;;;;;;9.31;28.17;101072.88;5071781;28;20051;-64
2022/03/12 01:53:01;;;;;;;22.52;9.30;;;;;;;9.12;28.09;101071.88;5089675;28;20101;-65
2022/03/12 01:55:30;;;;;;;20.95;9.07;;;;;;;9.20;28.14;101072.03;5071781;28;20335;-65
2022/03/12 01:58:02;;;;;;;19.95;9.48;;;;;;;9.29;28.09;101075.63;5071735;28;20032;-64
2022/03/12 02:00:41;;;;;;;24.30;9.07;;;;;;;9.16;28.14;101077.72;5081917;28;20066;-64
2022/03/12 02:03:10;;;;;;;27.63;9.10;;;;;;;9.05;27.81;101073.38;5075674;28;20515;-64
2022/03/12 02:05:37;;;;;;;19.25;8.95;;;;;;;9.16;27.76;101073.25;5091922;28;20545;-64
2022/03/12 02:08:06;;;;;;;22.10;9.95;;;;;;;8.97;28.35;101079.34;5072106;28;20487;-64
2022/03/12 02:10:36;;;;;;;20.67;9.57;;;;;;;9.06;28.45;101087.44;5109806;28;20089;-64
2022/03/12 02:13:02;;;;;;;19.95;9.05;;;;;;;9.08;28.44;101081.06;5108648;28;20510;-65
2022/03/12 02:15:32;;;;;;;21.25;9.10;;;;;;;9.10;28.42;101079.09;5091694;28;20085;-65
2022/03/12 02:17:58;;;;;;;17.30;8.93;;;;;;;9.15;28.83;101082.19;5105272;28;20043;-65
2022/03/12 02:20:25;;;;;;;19.67;9.88;;;;;;;9.25;28.40;101079.53;5077995;28;20509;-65
2022/03/12 02:22:53;;;;;;;18.08;9.18;;;;;;;9.14;28.81;101079.66;5081317;28;20087;-65
2022/03/12 02:25:30;;;;;;;19.10;9.43;;;;;;;9.15;28.65;101087.47;5025212;28;20044;-65
2022/03/12 02:27:58;;;;;;;21.52;9.82;;;;;;;9.00;29.33;101087.03;5058012;28;20480;-64
2022/03/12 02:30:37;;;;;;;22.65;9.07;;;;;;;9.00;29.57;101092.31;5074304;28;20044;-64
2022/03/12 02:33:05;;;;;;;22.25;9.30;;;;;;;9.12;29.50;101090.41;5074654;28;20044;-64
2022/03/12 02:35:35;;;;;;;19.67;9.55;;;;;;;9.20;29.83;101098.50;5074192;28;20075;-64
2022/03/12 02:38:03;;;;;;;29.33;9.35;;;;;;;9.05;29.71;101091.91;5076725;28;20032;-64
2022/03/12 02:40:32;;;;;;;19.80;9.13;;;;;;;8.92;29.77;101093.97;5080982;28;20048;-64
2022/03/12 02:43:01;;;;;;;20.90;9.52;;;;;;;8.94;29.45;101098.13;5075468;28;20047;-64
2022/03/12 02:45:29;;;;;;;19.83;9.60;;;;;;;8.93;29.42;101095.63;5075397;28;20040;-64
2022/03/12 02:47:57;;;;;;;17.45;8.95;;;;;;;9.00;29.52;101094.13;5075410;28;20033;-64
2022/03/12 02:50:24;;;;;;;20.92;8.90;;;;;;;9.01;29.72;101090.50;5075177;28;20127;-64
2022/03/12 02:52:53;;;;;;;20.48;8.88;;;;;;;9.11;29.65;101094.00;5075329;28;20055;-64
2022/03/12 02:55:22;;;;;;;19.88;9.77;;;;;;;9.02;29.15;101097.47;5075236;28;20102;-64
2022/03/12 02:57:50;;;;;;;18.75;9.07;;;;;;;8.97;29.70;101100.53;5057282;28;20032;-64
2022/03/12 03:00:18;;;;;;;23.83;9.50;;;;;;;9.01;29.67;101098.44;5075148;28;20093;-64
2022/03/12 03:02:50;;;;;;;21.77;9.73;;;;;;;8.94;30.05;101092.84;5057352;28;20041;-64
2022/03/12 03:05:26;;;;;;;;;;;;;;;9.03;30.85;101092.03;5075281;28;20098;-65
2022/03/12 03:07:56;;;;;;;18.33;8.48;;;;;;;8.98;30.75;101094.25;5073228;28;19921;-65
2022/03/12 03:10:41;;;;;;;27.23;9.10;;;;;;;8.91;31.99;101098.41;5062921;28;20044;-64
2022/03/12 03:13:29;;;;;;;21.88;9.32;;;;;;;8.99;32.73;101098.56;5074673;28;20064;-64
2022/03/12 03:15:59;;;;;;;17.75;8.90;;;;;;;8.89;32.23;101103.00;5073467;28;20463;-64
2022/03/12 03:18:30;;;;;;;18.58;8.93;;;;;;;8.82;31.95;101108.00;5073316;28;20039;-64
2022/03/12 03:20:57;;;;;;;17.55;8.65;;;;;;;8.84;32.16;101102.56;5073568;28;20044;-64
2022/03/12 03:23:28;;;;;;;22.08;9.00;;;;;;;8.74;31.51;101104.34;5073398;28;20045;-64
2022/03/12 03:25:56;;;;;;;20.10;9.30;;;;;;;8.62;31.55;101112.38;5073619;28;20044;-64
2022/03/12 03:28:22;;;;;;;23.90;10.13;;;;;;;8.71;31.67;101112.53;5074201;28;20068;-64
2022/03/12 03:30:51;;;;;;;20.75;8.98;;;;;;;8.72;31.96;101116.88;5072433;28;20468;-65
2022/03/12 03:33:20;;;;;;;20.65;9.35;;;;;;;8.64;31.79;101110.44;5073140;28;20381;-65
2022/03/12 03:35:48;;;;;;;22.02;9.73;;;;;;;8.63;31.97;101106.09;5074540;28;20493;-64
2022/03/12 03:38:16;;;;;;;21.75;9.20;;;;;;;8.64;31.52;101120.16;5062551;28;20071;-64
2022/03/12 03:40:44;;;;;;;22.08;9.85;;;;;;;8.57;32.02;101119.84;5093074;28;20085;-64
2022/03/12 03:43:13;;;;;;;21.35;9.63;;;;;;;8.60;31.51;101116.97;5093311;28;20076;-65
2022/03/12 03:45:42;;;;;;;23.55;10.18;;;;;;;8.61;31.12;101120.44;5094381;28;20089;-64
2022/03/12 03:48:14;;;;;;;22.60;9.57;;;;;;;8.65;31.43;101119.19;5094155;28;20048;-64
2022/03/12 03:50:42;;;;;;;22.35;9.63;;;;;;;8.68;31.65;101115.44;5094314;28;20036;-64
2022/03/12 03:53:12;;;;;;;20.38;9.98;;;;;;;8.68;32.37;101123.38;5076455;28;20089;-65
2022/03/12 03:55:39;;;;;;;23.13;9.43;;;;;;;8.83;31.92;101122.06;5092978;28;20040;-64
2022/03/12 03:58:06;;;;;;;20.25;9.88;;;;;;;8.72;32.10;101133.56;5076347;28;20094;-64
2022/03/12 04:00:32;;;;;;;19.40;10.13;;;;;;;8.58;31.83;101132.09;5092624;28;20457;-64
2022/03/12 04:03:02;;;;;;;23.30;9.98;;;;;;;8.80;31.99;101132.91;5093197;28;20044;-64
2022/03/12 04:05:31;;;;;;;23.63;10.50;;;;;;;8.74;32.21;101139.56;5092964;28;20077;-64
2022/03/12 04:08:00;;;;;;;27.48;10.15;;;;;;;8.67;32.10;101134.94;5092255;28;20102;-64
2022/03/12 04:10:28;;;;;;;20.98;10.00;;;;;;;8.75;32.41;101143.88;5093966;28;20036;-64
2022/03/12 04:12:57;;;;;;;22.02;10.25;;;;;;;8.71;32.67;101134.53;5092790;28;20071;-64
2022/03/12 04:15:24;;;;;;;25.77;10.38;;;;;;;8.75;33.21;101138.59;5092408;28;20415;-64
2022/03/12 04:17:53;;;;;;;23.77;9.73;;;;;;;8.67;32.89;101148.16;5093718;28;20488;-64
2022/03/12 04:20:22;;;;;;;22.15;10.50;;;;;;;8.66;33.05;101155.25;5093840;28;20052;-64
2022/03/12 04:22:51;;;;;;;24.08;10.60;;;;;;;8.80;32.86;101148.78;5085779;28;20052;-64
2022/03/12 04:25:20;;;;;;;23.35;10.68;;;;;;;8.70;32.94;101161.13;5072471;28;20048;-65
2022/03/12 04:27:47;;;;;;;27.95;10.68;;;;;;;8.68;32.84;101161.25;5073223;28;20477;-65
2022/03/12 04:30:18;;;;;;;22.02;10.50;;;;;;;8.62;33.69;101167.91;5073200;28;20048;-65
2022/03/12 04:32:46;;;;;;;22.17;10.35;;;;;;;8.74;33.52;101158.06;5055766;28;20055;-65
2022/03/12 04:35:15;;;;;;;22.48;10.45;;;;;;;8.71;33.32;101157.50;5072386;28;20527;-65
2022/03/12 04:37:42;;;;;;;22.88;10.38;;;;;;;8.78;33.68;101175.34;5072971;28;20419;-65
2022/03/12 04:40:13;;;;;;;24.90;10.77;;;;;;;8.73;32.86;101166.13;5074247;28;20044;-65
2022/03/12 04:42:44;;;;;;;25.63;10.57;;;;;;;8.70;33.95;101164.59;5091901;28;20040;-65
2022/03/12 04:45:13;;;;;;;31.30;10.65;;;;;;;8.81;33.50;101171.63;5093450;28;20040;-65
2022/03/12 04:47:42;;;;;;;21.50;10.73;;;;;;;8.76;33.12;101174.66;5093216;28;20089;-65
2022/03/12 04:50:12;;;;;;;24.60;10.88;;;;;;;8.75;33.98;101177.41;5075407;28;20047;-65
2022/03/12 04:52:42;;;;;;;21.35;10.27;;;;;;;8.73;34.15;101180.22;5059071;28;20055;-65
2022/03/12 04:55:12;;;;;;;31.00;10.43;;;;;;;8.78;33.61;101180.63;5092125;28;20093;-65
2022/03/12 04:57:40;;;;;;;27.25;11.15;;;;;;;8.60;33.52;101172.50;5093046;28;20048;-65
2022/03/12 05:00:15;;;;;;;24.02;11.10;;;;;;;8.56;34.24;101178.16;5075452;28;20432;-65
2022/03/12 05:02:42;;;;;;;22.95;11.55;;;;;;;8.55;34.42;101184.41;5092134;28;20052;-65
2022/03/12 05:05:11;;;;;;;20.55;10.35;;;;;;;8.48;34.42;101183.25;5091825;28;20040;-65
2022/03/12 05:07:43;;;;;;;26.02;11.10;;;;;;;8.40;34.71;101186.50;5074869;28;20547;-65
2022/03/12 05:10:12;;;;;;;28.42;11.48;;;;;;;8.42;34.22;101189.91;5091939;28;20052;-65
2022/03/12 05:12:40;;;;;;;24.05;10.65;;;;;;;8.20;34.55;101193.47;5091832;28;20040;-64
2022/03/12 05:15:11;;;;;;;24.90;11.02;;;;;;;8.23;35.21;101187.94;5091790;28;20044;-65
2022/03/12 05:17:43;;;;;;;23.48;11.20;;;;;;;8.22;35.48;101183.59;5091978;28;20089;-65
2022/03/12 05:20:10;;;;;;;27.38;10.50;;;;;;;8.24;36.01;101189.59;5079614;28;20059;-65
2022/03/12 05:22:37;;;;;;;23.00;11.15;;;;;;;8.09;35.71;101186.44;5091903;28;20048;-64
2022/03/12 05:25:05;;;;;;;27.80;11.27;;;;;;;8.08;36.14;101184.75;5091835;28;20134;-66
2022/03/12 05:27:32;;;;;;;50.83;12.85;;;;;;;8.02;35.88;101191.41;5091649;28;20101;-65
2022/03/12 05:29:59;;;;;;;22.80;11.10;;;;;;;8.08;36.34;101190.06;5092757;28;20044;-65
2022/03/12 05:32:26;;;;;;;22.98;11.05;;;;;;;8.29;35.24;101202.44;5075104;28;20460;-65
2022/03/12 05:34:53;;;;;;;21.98;11.00;;;;;;;8.12;35.63;101196.75;5073178;28;20062;-65
2022/03/12 05:37:22;;;;;;;24.77;11.00;;;;;;;8.12;36.36;101199.41;5054977;28;20068;-65
2022/03/12 05:39:53;;;;;;;23.48;11.10;;;;;;;8.03;37.50;101200.97;5072556;28;20066;-65
2022/03/12 05:42:22;;;;;;;26.03;10.93;;;;;;;8.03;36.68;101200.97;5062287;28;20060;-64
2022/03/12 05:44:50;;;;;;;29.88;12.00;;;;;;;7.97;36.45;101200.66;5072591;28;20524;-65
2022/03/12 05:47:18;;;;;;;31.48;10.77;;;;;;;8.05;36.30;101203.50;5038385;28;20053;-66
2022/03/12 05:49:45;;;;;;;25.90;10.38;;;;;;;8.03;37.11;101208.09;5072544;28;20072;-64
2022/03/12 05:52:13;;;;;;;23.67;11.38;;;;;;;7.91;37.09;101203.78;5072507;28;20090;-65
2022/03/12 05:54:40;;;;;;;25.70;11.82;;;;;;;7.90;36.69;101213.53;5073920;28;20041;-65
2022/03/12 05:57:07;;;;;;;24.00;11.05;;;;;;;7.95;37.65;101208.72;5058695;28;20049;-65
2022/03/12 05:59:33;;;;;;;21.63;11.20;;;;;;;7.96;37.61;101210.38;5082964;28;20047;-65
2022/03/12 06:02:00;;;;;;;23.90;11.40;;;;;;;7.93;38.12;101201.88;5095041;28;20040;-65
2022/03/12 06:04:27;;;;;;;21.63;10.52;;;;;;;7.92;37.35;101205.50;5092234;28;20515;-66
2022/03/12 06:06:55;;;;;;;28.38;11.23;;;;;;;7.95;37.99;101205.22;5083294;28;20094;-65
2022/03/12 06:09:22;;;;;;;30.52;11.23;;;;;;;7.80;38.20;101202.84;5074339;28;20083;-65
2022/03/12 06:11:53;;;;;;;23.48;11.63;;;;;;;7.85;38.44;101205.97;5041653;28;20055;-64
2022/03/12 06:14:21;;;;;;;27.17;11.30;;;;;;;7.74;38.46;101207.81;5074903;28;20049;-65
2022/03/12 06:16:48;;;;;;;26.67;11.98;;;;;;;7.78;38.77;101203.97;5075557;28;20068;-65
2022/03/12 06:19:19;;;;;;;25.35;11.77;;;;;;;7.95;38.16;101213.13;5075818;28;20068;-65
2022/03/12 06:21:47;;;;;;;27.05;11.63;;;;;;;7.92;38.31;101206.31;5075816;28;20407;-65
2022/03/12 06:24:15;;;;;;;29.65;12.40;;;;;;;7.93;39.32;101212.44;5074683;28;20068;-65
2022/03/12 06:26:43;;;;;;;29.55;11.85;;;;;;;7.98;38.71;101216.38;5075735;28;20444;-65
2022/03/12 06:29:13;;;;;;;27.67;12.02;;;;;;;8.04;39.23;101215.03;5057625;28;20153;-64
2022/03/12 06:31:41;;;;;;;29.42;11.90;;;;;;;7.99;39.37;101215.41;5074379;28;20118;-65
2022/03/12 06:34:10;;;;;;;26.40;11.93;;;;;;;8.03;39.82;101221.28;5074308;28;20070;-64
2022/03/12 06:36:37;;;;;;;28.35;12.27;;;;;;;8.15;39.52;101217.66;5041472;28;20079;-65
2022/03/12 06:39:05;;;;;;;32.50;12.00;;;;;;;8.08;40.34;101217.31;5075136;28;20044;-64
2022/03/12 06:41:36;;;;;;;29.75;12.25;;;;;;;8.07;40.62;101212.97;5073872;28;20045;-64
2022/03/12 06:44:03;;;;;;;28.77;12.55;;;;;;;8.20;40.47;101217.25;5074282;28;20055;-64
2022/03/12 06:46:30;;;;;;;23.48;11.20;;;;;;;8.32;40.07;101210.13;5075290;28;20041;-65
2022/03/12 06:48:57;;;;;;;26.35;12.23;;;;;;;8.24;40.81;101208.97;5082059;28;20078;-64
2022/03/12 06:51:24;;;;;;;25.30;11.70;;;;;;;8.32;40.47;101223.34;5094476;28;20048;-65
2022/03/12 06:53:52;;;;;;;24.55;11.60;;;;;;;8.20;40.92;101225.19;5077139;28;20054;-64
2022/03/12 06:56:21;;;;;;;30.38;11.57;;;;;;;8.29;41.36;101208.56;5077691;28;20048;-65
2022/03/12 06:58:47;;;;;;;23.45;12.00;;;;;;;8.37;41.25;101210.59;5095190;28;20488;-65
2022/03/12 07:01:14;;;;;;;23.40;11.57;;;;;;;8.38;41.31;101221.00;5095048;28;20551;-65
2022/03/12 07:03:41;;;;;;;25.52;11.95;;;;;;;8.60;41.00;101220.09;5094024;28;20051;-65
2022/03/12 07:06:09;;;;;;;31.63;11.68;;;;;;;8.48;41.40;101214.97;5076664;28;20446;-65
2022/03/12 07:08:38;;;;;;;26.38;11.57;;;;;;;8.54;42.49;101210.03;5077271;28;20036;-64
2022/03/12 07:11:07;;;;;;;25.92;11.38;;;;;;;8.45;42.29;101203.69;5093780;28;20076;-65
2022/03/12 07:13:35;;;;;;;23.67;11.80;;;;;;;8.47;43.07;101200.94;5093698;28;20040;-64
2022/03/12 07:16:02;;;;;;;23.20;11.35;;;;;;;8.56;42.75;101217.84;5078188;28;20098;-64
2022/03/12 07:18:29;;;;;;;20.95;10.32;;;;;;;8.55;42.70;101209.06;5093587;28;20043;-65
2022/03/12 07:20:56;;;;;;;26.20;11.52;;;;;;;8.67;42.71;101222.22;5094728;28;20039;-65
2022/03/12 07:23:22;;;;;;;26.67;12.50;;;;;;;8.86;42.35;101224.13;5076532;28;20459;-65
2022/03/12 07:25:49;;;;;;;25.02;11.85;;;;;;;9.02;42.25;101221.84;5093389;28;20036;-65
2022/03/12 07:28:18;;;;;;;23.63;11.43;;;;;;;8.98;42.64;101221.25;5073015;28;20045;-65
2022/03/12 07:30:45;;;;;;;28.67;11.38;;;;;;;9.21;42.71;101216.63;5057327;28;20140;-65
2022/03/12 07:33:12;;;;;;;28.65;11.25;;;;;;;9.17;42.93;101222.34;5074710;28;20511;-68
2022/03/12 07:35:39;;;;;;;27.73;11.38;;;;;;;9.13;43.18;101220.91;5074451;28;20090;-67
2022/03/12 07:38:10;;;;;;;23.92;11.27;;;;;;;9.14;42.99;101230.53;5074396;28;20052;-68
2022/03/12 07:40:39;;;;;;;25.02;11.75;;;;;;;9.32;43.62;101238.69;5074404;28;20128;-68
2022/03/12 07:43:07;;;;;;;31.40;11.27;;;;;;;9.40;43.50;101244.16;5074002;28;20045;-67
2022/03/12 07:45:34;;;;;;;25.52;12.18;;;;;;;9.49;43.44;101251.28;5073132;28;20048;-69
2022/03/12 07:48:01;;;;;;;26.98;11.95;;;;;;;9.43;43.70;101254.47;5073779;28;20040;-66
2022/03/12 07:50:28;;;;;;;21.52;12.07;;;;;;;9.48;44.16;101256.72;5073905;28;20040;-66
2022/03/12 07:52:55;;;;;;;27.20;12.13;;;;;;;9.52;44.28;101277.50;5074058;28;20052;-68
2022/03/12 07:55:22;;;;;;;24.02;11.57;;;;;;;9.69;44.34;101278.66;5073986;28;20040;-67
2022/03/12 07:57:49;;;;;;;25.73;11.70;;;;;;;9.56;45.06;101284.22;5072866;28;20048;-66
2022/03/12 08:00:16;;;;;;;23.25;11.40;;;;;;;9.64;44.95;101286.22;5073983;28;20101;-65
2022/03/12 08:02:46;;;;;;;24.55;12.00;;;;;;;9.72;44.77;101277.59;5073740;28;20056;-65
2022/03/12 08:05:13;;;;;;;24.35;11.55;;;;;;;9.77;45.08;101285.97;5073499;28;20455;-65
2022/03/12 08:07:40;;;;;;;26.55;12.30;;;;;;;9.92;45.13;101284.59;5063758;28;20109;-64
2022/03/12 08:10:08;;;;;;;22.70;10.85;;;;;;;9.99;44.82;101287.53;5055747;28;20081;-65
2022/03/12 08:12:35;;;;;;;26.60;12.07;;;;;;;10.04;45.15;101284.47;5039610;28;20045;-65
2022/03/12 08:15:07;;;;;;;24.02;11.38;;;;;;;10.01;45.78;101295.38;5039940;28;20404;-65
2022/03/12 08:17:35;;;;;;;22.13;11.63;;;;;;;10.18;45.35;101297.31;5080507;28;20553;-65
2022/03/12 08:20:05;;;;;;;23.63;11.27;;;;;;;10.32;45.39;101294.31;5092372;28;20036;-64
2022/03/12 08:22:31;;;;;;;22.98;10.82;;;;;;;10.50;45.50;101301.56;5092667;28;20094;-65
2022/03/12 08:24:58;;;;;;;21.85;11.10;;;;;;;10.56;45.26;101303.66;5086439;28;20044;-65
2022/03/12 08:27:27;;;;;;;28.50;11.77;;;;;;;10.65;45.24;101302.81;5093872;28;20082;-65
2022/03/12 08:29:54;;;;;;;28.10;11.85;;;;;;;10.95;45.51;101307.13;5093192;28;20101;-65
2022/03/12 08:32:21;;;;;;;26.33;11.50;;;;;;;10.95;45.40;101309.78;5076544;28;20386;-65
2022/03/12 08:34:48;;;;;;;21.83;11.23;;;;;;;11.24;44.89;101318.63;5055515;28;20094;-65
2022/03/12 08:37:15;;;;;;;24.55;11.70;;;;;;;11.38;45.00;101320.00;5073259;28;20067;-65
2022/03/12 08:39:44;;;;;;;27.85;12.18;;;;;;;11.20;45.31;101311.94;5072859;28;20554;-65
2022/03/12 08:42:11;;;;;;;25.35;11.35;;;;;;;11.48;44.82;101331.44;5059726;28;20052;-65
2022/03/12 08:44:39;;;;;;;24.60;11.63;;;;;;;11.24;46.18;101316.84;5055425;28;20041;-65
2022/03/12 08:47:06;;;;;;;23.25;11.75;;;;;;;11.59;45.96;101319.75;5055084;28;20044;-65
2022/03/12 08:49:34;;;;;;;28.92;11.98;;;;;;;11.63;45.52;101329.13;5063267;28;20044;-65
2022/03/12 08:52:03;;;;;;;26.88;11.48;;;;;;;11.52;45.75;101327.50;5072482;28;20047;-65
2022/03/12 08:54:29;;;;;;;26.73;12.30;;;;;;;11.47;46.08;101325.25;5071651;28;20044;-65
2022/03/12 08:56:56;;;;;;;22.90;11.55;;;;;;;11.77;45.82;101333.97;5055034;28;20098;-65
2022/03/12 08:59:23;;;;;;;22.98;11.15;;;;;;;12.12;44.59;101335.06;5071675;28;20068;-65
2022/03/12 09:01:49;;;;;;;30.23;12.02;;;;;;;12.05;44.92;101337.47;5071343;28;20056;-65
2022/03/12 09:04:17;;;;;;;23.13;11.85;;;;;;;12.01;45.02;101328.13;5071857;28;20048;-65
2022/03/12 09:06:44;;;;;;;22.92;12.32;;;;;;;12.17;45.17;101335.47;5054847;28;20057;-65
2022/03/12 09:09:11;;;;;;;32.50;11.85;;;;;;;12.31;44.87;101335.91;5072527;28;20060;-65
2022/03/12 09:11:38;;;;;;;23.55;12.45;;;;;;;12.43;44.22;101338.19;5054962;28;20048;-65
2022/03/12 09:14:05;;;;;;;28.27;12.55;;;;;;;12.70;44.08;101338.25;5038598;28;20052;-65
2022/03/12 09:16:32;;;;;;;25.95;12.02;;;;;;;12.83;43.31;101336.06;5071741;28;20075;-65
2022/03/12 09:18:58;;;;;;;25.15;12.35;;;;;;;13.01;43.08;101342.19;5072636;28;20059;-65
2022/03/12 09:21:25;;;;;;;27.85;12.23;;;;;;;13.42;42.62;101339.84;5054686;28;20497;-65
2022/03/12 09:23:52;;;;;;;26.30;12.07;;;;;;;13.61;42.54;101340.59;5054916;28;20083;-65
2022/03/12 09:26:22;;;;;;;24.73;12.35;;;;;;;13.34;43.53;101331.78;5071341;28;20051;-65
2022/03/12 09:28:48;;;;;;;19.58;10.98;;;;;;;12.86;45.71;101343.72;5066052;28;20037;-65
2022/03/12 09:31:16;;;;;;;21.92;10.95;;;;;;;12.78;47.55;101335.69;5058878;28;20072;-65
2022/03/12 09:33:43;;;;;;;21.63;9.63;;;;;;;12.87;49.12;101340.91;5058837;28;20100;-65
2022/03/12 09:36:10;;;;;;;20.10;8.95;;;;;;;12.83;50.05;101338.72;5076719;28;20051;-68
2022/03/12 09:38:37;;;;;;;19.83;8.73;;;;;;;12.93;50.24;101334.13;5058889;28;20029;-67
2022/03/12 09:41:05;;;;;;;18.13;8.82;;;;;;;13.49;49.12;101339.19;5075427;28;20040;-66
2022/03/12 09:43:32;;;;;;;19.95;9.73;;;;;;;13.51;49.19;101340.69;5076804;28;20464;-67
2022/03/12 09:46:00;;;;;;;19.45;9.45;;;;;;;14.36;46.99;101340.66;5076714;28;20386;-67
2022/03/12 09:48:27;;;;;;;17.65;9.07;;;;;;;14.49;46.35;101342.00;5076628;28;20041;-68
2022/03/12 09:50:53;;;;;;;20.77;10.00;;;;;;;14.43;46.99;101340.84;5089508;28;20470;-67
2022/03/12 09:53:20;;;;;;;18.77;9.07;;;;;;;14.71;46.37;101341.38;5095496;28;20097;-65
2022/03/12 09:55:47;;;;;;;17.40;8.48;;;;;;;14.67;46.05;101332.03;5095286;28;20090;-65
2022/03/12 09:58:13;;;;;;;16.95;8.07;;;;;;;14.83;45.76;101333.88;5096278;28;20116;-65
2022/03/12 10:00:40;;;;;;;16.27;8.40;;;;;;;15.61;44.30;101340.41;5095085;28;20050;-65
2022/03/12 10:03:07;;;;;;;15.90;8.15;;;;;;;15.49;44.22;101341.78;5096273;28;20120;-65
2022/03/12 10:05:35;;;;;;;16.00;7.53;;;;;;;15.72;43.98;101347.22;5095909;28;20067;-65
2022/03/12 10:08:02;;;;;;;16.00;7.90;;;;;;;16.18;42.90;101349.22;5077753;28;20062;-65
2022/03/12 10:10:31;;;;;;;14.32;7.63;;;;;;;16.49;41.63;101357.22;5061584;28;20036;-66
2022/03/12 10:12:58;;;;;;;15.32;7.20;;;;;;;18.62;37.59;101348.66;5078392;28;20036;-65
2022/03/12 10:15:25;;;;;;;15.15;7.68;;;;;;;19.12;36.18;101337.94;5094902;28;20047;-66
2022/03/12 10:17:52;;;;;;;15.88;7.00;;;;;;;19.00;36.35;101343.00;5074191;28;20507;-64
2022/03/12 10:20:22;;;;;;;13.93;7.03;;;;;;;19.11;36.05;101339.78;5067258;28;20032;-64
2022/03/12 10:22:49;;;;;;;13.90;6.93;;;;;;;18.93;35.96;101336.75;5061285;28;20036;-64
2022/03/12 10:25:16;;;;;;;13.80;6.20;;;;;;;20.02;34.12;101338.84;5089752;28;20496;-64
2022/03/12 10:27:43;;;;;;;14.57;6.22;;;;;;;20.87;32.69;101341.09;5041462;28;20090;-64
2022/03/12 10:30:12;;;;;;;14.98;6.05;;;;;;;20.95;31.87;101332.75;5073750;28;20056;-65
2022/03/12 10:32:45;;;;;;;14.88;6.55;;;;;;;20.83;32.11;101332.56;5057883;28;20045;-65
2022/03/12 10:35:14;;;;;;;13.80;5.70;;;;;;;21.60;31.07;101323.97;5041591;28;20041;-65
2022/03/12 10:37:41;;;;;;;15.85;6.43;;;;;;;22.65;29.32;101322.75;5075249;28;20045;-65
2022/03/12 10:40:19;;;;;;;15.27;6.40;;;;;;;23.47;28.09;101326.16;5024472;28;20040;-65
2022/03/12 10:43:02;;;;;;;17.17;6.50;;;;;;;22.76;28.78;101324.75;5074118;28;20493;-65
2022/03/12 10:45:31;;;;;;;14.18;6.18;;;;;;;22.93;28.55;101325.03;5074281;28;20041;-65
2022/03/12 10:48:03;;;;;;;12.80;5.60;;;;;;;22.09;29.64;101330.59;5075324;28;20056;-65
2022/03/12 10:50:34;;;;;;;12.25;6.05;;;;;;;21.96;29.78;101319.88;5051187;28;20044;-65
2022/03/12 10:53:05;;;;;;;13.73;5.80;;;;;;;21.28;30.72;101329.19;5044726;28;20047;-64
2022/03/12 10:55:37;;;;;;;13.02;5.88;;;;;;;21.38;30.60;101318.78;5095532;28;20066;-64
2022/03/12 11:00:45;;;;;;;12.00;5.65;;;;;;;21.91;30.45;101320.50;5090490;27;20396;-66
2022/03/12 11:03:20;;;;;;;14.35;6.20;;;;;;;21.68;30.43;101318.31;5073239;28;20052;-66
2022/03/12 11:05:49;;;;;;;13.95;5.38;;;;;;;21.43;30.31;101312.78;5090101;28;20043;-66
2022/03/12 11:08:21;;;;;;;13.07;5.22;;;;;;;21.12;30.67;101325.09;5089085;28;20400;-66
2022/03/12 11:10:55;;;;;;;13.98;4.60;;;;;;;20.10;32.70;101327.03;5072652;28;20036;-66
2022/03/12 11:13:27;;;;;;;11.80;5.50;;;;;;;19.10;34.72;101329.22;5088947;28;20090;-65
2022/03/12 11:16:05;;;;;;;14.05;5.63;;;;;;;18.95;35.21;101327.44;5070544;28;20052;-66
2022/03/12 11:18:33;;;;;;;13.30;5.15;;;;;;;18.88;35.21;101329.28;5090173;28;20488;-65
2022/03/12 11:21:00;;;;;;;11.70;4.85;;;;;;;18.73;36.05;101333.88;5068754;28;20056;-65
2022/03/12 11:23:30;;;;;;;14.38;4.78;;;;;;;18.66;35.63;101336.47;5088999;28;20055;-67
2022/03/12 11:26:05;;;;;;;12.27;4.85;;;;;;;18.72;35.64;101332.19;5085036;28;20048;-67
2022/03/12 11:28:36;;;;;;;12.48;5.55;;;;;;;18.72;35.32;101329.50;5065265;28;20076;-67
2022/03/12 11:31:07;;;;;;;17.95;5.05;;;;;;;18.24;36.19;101332.75;5072097;28;20102;-68